sensor_id;sensor_type;location;lat;lon;timestamp;P1;durP1;ratioP1;P2;durP2;ratioP2
19396;SDS011;9834;48.076;11.878;2023-02-15T00:01:33;12.13;;;6.40;;
19396;SDS011;9834;48.076;11.878;2023-02-15T00:04:01;8.97;;;6.03;;
19396;SDS011;9834;48.076;11.878;2023-02-15T00:06:30;9.00;;;5.20;;
19396;SDS011;9834;48.076;11.878;2023-02-15T00:08:58;8.00;;;5.67;;
19396;SDS011;9834;48.076;11.878;2023-02-15T00:11:26;8.57;;;6.47;;
19396;SDS011;9834;48.076;11.878;2023-02-15T00:14:08;6.77;;;5.90;;
19396;SDS011;9834;48.076;11.878;2023-02-15T00:16:37;10.30;;;6.40;;
19396;SDS011;9834;48.076;11.878;2023-02-15T00:19:05;11.73;;;6.63;;
19396;SDS011;9834;48.076;11.878;2023-02-15T00:21:35;12.10;;;5.77;;
19396;SDS011;9834;48.076;11.878;2023-02-15T00:24:04;9.27;;;5.60;;
19396;SDS011;9834;48.076;11.878;2023-02-15T00:26:32;8.50;;;6.87;;
19396;SDS011;9834;48.076;11.878;2023-02-15T00:29:00;11.47;;;7.40;;
19396;SDS011;9834;48.076;11.878;2023-02-15T00:31:28;11.83;;;7.17;;
19396;SDS011;9834;48.076;11.878;2023-02-15T00:34:01;7.83;;;5.90;;
19396;SDS011;9834;48.076;11.878;2023-02-15T00:36:29;15.50;;;7.07;;
19396;SDS011;9834;48.076;11.878;2023-02-15T00:38:58;12.70;;;6.70;;
19396;SDS011;9834;48.076;11.878;2023-02-15T00:41:25;7.97;;;6.70;;
19396;SDS011;9834;48.076;11.878;2023-02-15T00:43:53;13.53;;;6.60;;
19396;SDS011;9834;48.076;11.878;2023-02-15T00:46:20;8.43;;;6.83;;
19396;SDS011;9834;48.076;11.878;2023-02-15T00:48:48;9.60;;;6.53;;
19396;SDS011;9834;48.076;11.878;2023-02-15T00:51:16;8.97;;;5.90;;
19396;SDS011;9834;48.076;11.878;2023-02-15T00:53:44;11.83;;;7.80;;
19396;SDS011;9834;48.076;11.878;2023-02-15T00:56:13;9.50;;;6.60;;
19396;SDS011;9834;48.076;11.878;2023-02-15T00:58:42;12.30;;;6.60;;
19396;SDS011;9834;48.076;11.878;2023-02-15T01:01:10;10.23;;;7.50;;
19396;SDS011;9834;48.076;11.878;2023-02-15T01:03:39;13.07;;;6.77;;
19396;SDS011;9834;48.076;11.878;2023-02-15T01:06:08;9.53;;;7.07;;
19396;SDS011;9834;48.076;11.878;2023-02-15T01:08:35;11.50;;;6.60;;
19396;SDS011;9834;48.076;11.878;2023-02-15T01:11:04;10.80;;;7.33;;
19396;SDS011;9834;48.076;11.878;2023-02-15T01:13:33;11.73;;;7.13;;
19396;SDS011;9834;48.076;11.878;2023-02-15T01:16:01;17.27;;;8.03;;
19396;SDS011;9834;48.076;11.878;2023-02-15T01:18:29;10.83;;;6.87;;
19396;SDS011;9834;48.076;11.878;2023-02-15T01:20:57;16.53;;;9.10;;
19396;SDS011;9834;48.076;11.878;2023-02-15T01:23:24;15.10;;;8.33;;
19396;SDS011;9834;48.076;11.878;2023-02-15T01:25:52;12.67;;;7.80;;
19396;SDS011;9834;48.076;11.878;2023-02-15T01:28:19;10.43;;;6.93;;
19396;SDS011;9834;48.076;11.878;2023-02-15T01:30:48;10.87;;;7.70;;
19396;SDS011;9834;48.076;11.878;2023-02-15T01:33:16;11.97;;;6.70;;
19396;SDS011;9834;48.076;11.878;2023-02-15T01:35:44;14.93;;;8.50;;
19396;SDS011;9834;48.076;11.878;2023-02-15T01:38:12;9.30;;;6.53;;
19396;SDS011;9834;48.076;11.878;2023-02-15T01:40:41;14.17;;;8.33;;
19396;SDS011;9834;48.076;11.878;2023-02-15T01:43:09;12.63;;;7.50;;
19396;SDS011;9834;48.076;11.878;2023-02-15T01:45:38;14.00;;;7.17;;
19396;SDS011;9834;48.076;11.878;2023-02-15T01:48:12;9.77;;;7.43;;
19396;SDS011;9834;48.076;11.878;2023-02-15T01:50:46;11.47;;;7.53;;
19396;SDS011;9834;48.076;11.878;2023-02-15T01:53:18;12.67;;;8.13;;
19396;SDS011;9834;48.076;11.878;2023-02-15T01:55:49;18.13;;;8.93;;
19396;SDS011;9834;48.076;11.878;2023-02-15T01:58:21;13.53;;;8.20;;
19396;SDS011;9834;48.076;11.878;2023-02-15T02:00:50;12.23;;;7.77;;
19396;SDS011;9834;48.076;11.878;2023-02-15T02:03:20;11.87;;;6.57;;
19396;SDS011;9834;48.076;11.878;2023-02-15T02:05:56;11.57;;;8.03;;
19396;SDS011;9834;48.076;11.878;2023-02-15T02:08:23;15.07;;;8.60;;
19396;SDS011;9834;48.076;11.878;2023-02-15T02:10:51;11.77;;;8.10;;
19396;SDS011;9834;48.076;11.878;2023-02-15T02:13:19;11.90;;;7.87;;
19396;SDS011;9834;48.076;11.878;2023-02-15T02:15:47;17.43;;;8.93;;
19396;SDS011;9834;48.076;11.878;2023-02-15T02:18:29;11.00;;;7.93;;
19396;SDS011;9834;48.076;11.878;2023-02-15T02:24:21;16.90;;;8.23;;
19396;SDS011;9834;48.076;11.878;2023-02-15T02:33:33;15.03;;;8.87;;
19396;SDS011;9834;48.076;11.878;2023-02-15T02:36:18;14.10;;;8.50;;
19396;SDS011;9834;48.076;11.878;2023-02-15T02:38:54;15.27;;;8.83;;
19396;SDS011;9834;48.076;11.878;2023-02-15T02:41:36;15.53;;;8.43;;
19396;SDS011;9834;48.076;11.878;2023-02-15T02:44:12;13.17;;;8.90;;
19396;SDS011;9834;48.076;11.878;2023-02-15T02:46:46;19.43;;;9.00;;
19396;SDS011;9834;48.076;11.878;2023-02-15T02:49:20;14.30;;;8.10;;
19396;SDS011;9834;48.076;11.878;2023-02-15T02:51:59;16.93;;;8.57;;
19396;SDS011;9834;48.076;11.878;2023-02-15T02:54:28;14.70;;;8.80;;
19396;SDS011;9834;48.076;11.878;2023-02-15T02:56:56;13.53;;;8.60;;
19396;SDS011;9834;48.076;11.878;2023-02-15T02:59:29;18.90;;;9.57;;
19396;SDS011;9834;48.076;11.878;2023-02-15T03:02:01;15.80;;;8.57;;
19396;SDS011;9834;48.076;11.878;2023-02-15T03:04:35;17.97;;;8.93;;
19396;SDS011;9834;48.076;11.878;2023-02-15T03:07:04;16.57;;;9.80;;
19396;SDS011;9834;48.076;11.878;2023-02-15T03:09:35;19.90;;;9.90;;
19396;SDS011;9834;48.076;11.878;2023-02-15T03:12:08;13.40;;;9.37;;
19396;SDS011;9834;48.076;11.878;2023-02-15T03:14:37;17.50;;;10.10;;
19396;SDS011;9834;48.076;11.878;2023-02-15T03:17:06;21.70;;;9.87;;
19396;SDS011;9834;48.076;11.878;2023-02-15T03:19:37;16.83;;;9.93;;
19396;SDS011;9834;48.076;11.878;2023-02-15T03:22:06;14.40;;;8.60;;
19396;SDS011;9834;48.076;11.878;2023-02-15T03:24:39;14.93;;;9.27;;
19396;SDS011;9834;48.076;11.878;2023-02-15T03:27:11;16.23;;;8.87;;
19396;SDS011;9834;48.076;11.878;2023-02-15T03:29:43;13.30;;;9.03;;
19396;SDS011;9834;48.076;11.878;2023-02-15T03:32:12;14.77;;;8.33;;
19396;SDS011;9834;48.076;11.878;2023-02-15T03:34:43;11.93;;;8.13;;
19396;SDS011;9834;48.076;11.878;2023-02-15T03:37:13;14.80;;;9.27;;
19396;SDS011;9834;48.076;11.878;2023-02-15T03:39:48;17.37;;;8.53;;
19396;SDS011;9834;48.076;11.878;2023-02-15T03:42:20;14.67;;;9.07;;
19396;SDS011;9834;48.076;11.878;2023-02-15T03:44:54;16.97;;;9.20;;
19396;SDS011;9834;48.076;11.878;2023-02-15T03:47:25;14.97;;;8.73;;
19396;SDS011;9834;48.076;11.878;2023-02-15T03:49:59;12.80;;;7.37;;
19396;SDS011;9834;48.076;11.878;2023-02-15T03:52:49;15.20;;;9.37;;
19396;SDS011;9834;48.076;11.878;2023-02-15T03:55:17;16.10;;;9.67;;
19396;SDS011;9834;48.076;11.878;2023-02-15T03:57:45;16.40;;;8.83;;
19396;SDS011;9834;48.076;11.878;2023-02-15T04:00:37;15.70;;;9.63;;
19396;SDS011;9834;48.076;11.878;2023-02-15T04:03:26;18.03;;;9.33;;
19396;SDS011;9834;48.076;11.878;2023-02-15T04:06:01;13.60;;;9.03;;
19396;SDS011;9834;48.076;11.878;2023-02-15T04:08:29;13.70;;;8.27;;
19396;SDS011;9834;48.076;11.878;2023-02-15T04:11:10;15.03;;;8.97;;
19396;SDS011;9834;48.076;11.878;2023-02-15T04:13:38;17.17;;;9.83;;
19396;SDS011;9834;48.076;11.878;2023-02-15T04:16:05;18.27;;;9.17;;
19396;SDS011;9834;48.076;11.878;2023-02-15T04:18:32;18.23;;;9.60;;
19396;SDS011;9834;48.076;11.878;2023-02-15T04:21:20;12.10;;;8.90;;
19396;SDS011;9834;48.076;11.878;2023-02-15T04:24:06;15.47;;;8.63;;
19396;SDS011;9834;48.076;11.878;2023-02-15T04:26:52;18.50;;;8.40;;
19396;SDS011;9834;48.076;11.878;2023-02-15T04:29:19;19.93;;;9.83;;
19396;SDS011;9834;48.076;11.878;2023-02-15T04:31:47;14.10;;;8.83;;
19396;SDS011;9834;48.076;11.878;2023-02-15T04:34:15;13.83;;;7.90;;
19396;SDS011;9834;48.076;11.878;2023-02-15T04:36:44;15.13;;;8.00;;
19396;SDS011;9834;48.076;11.878;2023-02-15T04:39:12;22.03;;;10.33;;
19396;SDS011;9834;48.076;11.878;2023-02-15T04:41:40;17.40;;;9.03;;
19396;SDS011;9834;48.076;11.878;2023-02-15T04:44:08;13.73;;;8.70;;
19396;SDS011;9834;48.076;11.878;2023-02-15T04:46:35;18.03;;;8.90;;
19396;SDS011;9834;48.076;11.878;2023-02-15T04:49:03;18.57;;;9.67;;
19396;SDS011;9834;48.076;11.878;2023-02-15T04:51:30;14.63;;;7.90;;
19396;SDS011;9834;48.076;11.878;2023-02-15T04:53:59;17.50;;;8.93;;
19396;SDS011;9834;48.076;11.878;2023-02-15T04:56:26;14.30;;;8.80;;
19396;SDS011;9834;48.076;11.878;2023-02-15T04:58:55;13.33;;;8.27;;
19396;SDS011;9834;48.076;11.878;2023-02-15T05:01:22;11.63;;;8.20;;
19396;SDS011;9834;48.076;11.878;2023-02-15T05:03:49;14.73;;;8.90;;
19396;SDS011;9834;48.076;11.878;2023-02-15T05:06:16;11.83;;;7.63;;
19396;SDS011;9834;48.076;11.878;2023-02-15T05:08:44;12.37;;;8.40;;
19396;SDS011;9834;48.076;11.878;2023-02-15T05:11:13;13.73;;;8.60;;
19396;SDS011;9834;48.076;11.878;2023-02-15T05:13:40;15.63;;;7.67;;
19396;SDS011;9834;48.076;11.878;2023-02-15T05:16:08;13.60;;;7.83;;
19396;SDS011;9834;48.076;11.878;2023-02-15T05:18:35;12.97;;;6.97;;
19396;SDS011;9834;48.076;11.878;2023-02-15T05:21:02;9.03;;;5.20;;
19396;SDS011;9834;48.076;11.878;2023-02-15T05:23:30;16.77;;;9.03;;
19396;SDS011;9834;48.076;11.878;2023-02-15T05:25:58;11.37;;;7.60;;
19396;SDS011;9834;48.076;11.878;2023-02-15T05:28:44;12.50;;;8.53;;
19396;SDS011;9834;48.076;11.878;2023-02-15T05:31:12;14.73;;;7.53;;
19396;SDS011;9834;48.076;11.878;2023-02-15T05:33:41;16.53;;;8.63;;
19396;SDS011;9834;48.076;11.878;2023-02-15T05:36:09;14.43;;;8.50;;
19396;SDS011;9834;48.076;11.878;2023-02-15T05:38:37;13.00;;;8.70;;
19396;SDS011;9834;48.076;11.878;2023-02-15T05:41:05;10.60;;;7.20;;
19396;SDS011;9834;48.076;11.878;2023-02-15T05:43:32;13.80;;;7.93;;
19396;SDS011;9834;48.076;11.878;2023-02-15T05:46:01;14.73;;;7.87;;
19396;SDS011;9834;48.076;11.878;2023-02-15T05:48:30;12.67;;;7.77;;
19396;SDS011;9834;48.076;11.878;2023-02-15T05:50:58;15.50;;;8.87;;
19396;SDS011;9834;48.076;11.878;2023-02-15T05:53:27;15.13;;;8.77;;
19396;SDS011;9834;48.076;11.878;2023-02-15T05:55:56;11.43;;;8.53;;
19396;SDS011;9834;48.076;11.878;2023-02-15T05:58:25;14.77;;;7.90;;
19396;SDS011;9834;48.076;11.878;2023-02-15T06:00:53;15.30;;;9.13;;
19396;SDS011;9834;48.076;11.878;2023-02-15T06:03:22;12.47;;;8.07;;
19396;SDS011;9834;48.076;11.878;2023-02-15T06:05:53;17.30;;;9.13;;
19396;SDS011;9834;48.076;11.878;2023-02-15T06:08:20;13.60;;;8.70;;
19396;SDS011;9834;48.076;11.878;2023-02-15T06:10:47;14.63;;;9.00;;
19396;SDS011;9834;48.076;11.878;2023-02-15T06:13:15;16.23;;;9.30;;
19396;SDS011;9834;48.076;11.878;2023-02-15T06:15:42;15.83;;;9.47;;
19396;SDS011;9834;48.076;11.878;2023-02-15T06:18:09;17.90;;;9.43;;
19396;SDS011;9834;48.076;11.878;2023-02-15T06:20:38;16.53;;;9.53;;
19396;SDS011;9834;48.076;11.878;2023-02-15T06:23:05;15.90;;;8.63;;
19396;SDS011;9834;48.076;11.878;2023-02-15T06:25:32;16.23;;;8.53;;
19396;SDS011;9834;48.076;11.878;2023-02-15T06:27:59;13.20;;;9.00;;
19396;SDS011;9834;48.076;11.878;2023-02-15T06:30:27;15.57;;;9.13;;
19396;SDS011;9834;48.076;11.878;2023-02-15T06:32:54;14.73;;;7.70;;
19396;SDS011;9834;48.076;11.878;2023-02-15T06:35:22;10.40;;;7.03;;
19396;SDS011;9834;48.076;11.878;2023-02-15T06:37:50;12.23;;;7.00;;
19396;SDS011;9834;48.076;11.878;2023-02-15T06:40:17;15.63;;;7.57;;
19396;SDS011;9834;48.076;11.878;2023-02-15T06:42:44;14.27;;;7.80;;
19396;SDS011;9834;48.076;11.878;2023-02-15T06:45:11;9.83;;;7.47;;
19396;SDS011;9834;48.076;11.878;2023-02-15T06:47:38;13.00;;;7.80;;
19396;SDS011;9834;48.076;11.878;2023-02-15T06:50:06;13.83;;;7.97;;
19396;SDS011;9834;48.076;11.878;2023-02-15T06:52:33;13.23;;;8.20;;
19396;SDS011;9834;48.076;11.878;2023-02-15T06:55:02;14.73;;;9.40;;
19396;SDS011;9834;48.076;11.878;2023-02-15T06:57:29;12.17;;;7.90;;
19396;SDS011;9834;48.076;11.878;2023-02-15T06:59:57;23.00;;;9.53;;
19396;SDS011;9834;48.076;11.878;2023-02-15T07:02:24;11.00;;;8.17;;
19396;SDS011;9834;48.076;11.878;2023-02-15T07:04:52;14.60;;;7.83;;
19396;SDS011;9834;48.076;11.878;2023-02-15T07:07:19;16.87;;;9.33;;
19396;SDS011;9834;48.076;11.878;2023-02-15T07:09:46;15.97;;;8.97;;
19396;SDS011;9834;48.076;11.878;2023-02-15T07:12:15;14.33;;;7.67;;
19396;SDS011;9834;48.076;11.878;2023-02-15T07:15:00;16.20;;;7.97;;
19396;SDS011;9834;48.076;11.878;2023-02-15T07:17:29;11.67;;;7.47;;
19396;SDS011;9834;48.076;11.878;2023-02-15T07:19:56;11.53;;;6.90;;
19396;SDS011;9834;48.076;11.878;2023-02-15T07:22:24;15.00;;;7.33;;
19396;SDS011;9834;48.076;11.878;2023-02-15T07:24:52;11.47;;;7.07;;
19396;SDS011;9834;48.076;11.878;2023-02-15T07:27:22;9.30;;;6.50;;
19396;SDS011;9834;48.076;11.878;2023-02-15T07:29:49;11.07;;;7.70;;
19396;SDS011;9834;48.076;11.878;2023-02-15T07:32:17;10.87;;;6.30;;
19396;SDS011;9834;48.076;11.878;2023-02-15T07:34:44;12.20;;;7.03;;
19396;SDS011;9834;48.076;11.878;2023-02-15T07:37:12;14.30;;;7.57;;
19396;SDS011;9834;48.076;11.878;2023-02-15T07:39:39;14.20;;;6.77;;
19396;SDS011;9834;48.076;11.878;2023-02-15T07:42:06;12.10;;;6.70;;
19396;SDS011;9834;48.076;11.878;2023-02-15T07:44:35;12.90;;;7.50;;
19396;SDS011;9834;48.076;11.878;2023-02-15T07:47:02;10.77;;;5.93;;
19396;SDS011;9834;48.076;11.878;2023-02-15T07:49:30;12.53;;;7.60;;
19396;SDS011;9834;48.076;11.878;2023-02-15T07:51:58;9.30;;;5.90;;
19396;SDS011;9834;48.076;11.878;2023-02-15T07:54:27;13.43;;;6.33;;
19396;SDS011;9834;48.076;11.878;2023-02-15T07:56:55;10.63;;;6.17;;
19396;SDS011;9834;48.076;11.878;2023-02-15T07:59:22;9.33;;;6.47;;
19396;SDS011;9834;48.076;11.878;2023-02-15T08:01:51;7.73;;;6.43;;
19396;SDS011;9834;48.076;11.878;2023-02-15T08:04:21;9.43;;;6.20;;
19396;SDS011;9834;48.076;11.878;2023-02-15T08:06:51;9.83;;;6.80;;
19396;SDS011;9834;48.076;11.878;2023-02-15T08:09:20;16.17;;;8.70;;
19396;SDS011;9834;48.076;11.878;2023-02-15T08:11:47;10.60;;;6.53;;
19396;SDS011;9834;48.076;11.878;2023-02-15T08:14:15;11.13;;;7.37;;
19396;SDS011;9834;48.076;11.878;2023-02-15T08:16:44;9.30;;;6.70;;
19396;SDS011;9834;48.076;11.878;2023-02-15T08:19:14;12.87;;;6.83;;
19396;SDS011;9834;48.076;11.878;2023-02-15T08:21:44;11.90;;;6.70;;
19396;SDS011;9834;48.076;11.878;2023-02-15T08:24:12;11.17;;;7.27;;
19396;SDS011;9834;48.076;11.878;2023-02-15T08:26:41;9.77;;;6.17;;
19396;SDS011;9834;48.076;11.878;2023-02-15T08:29:10;7.47;;;5.73;;
19396;SDS011;9834;48.076;11.878;2023-02-15T08:31:37;13.30;;;6.23;;
19396;SDS011;9834;48.076;11.878;2023-02-15T08:34:06;8.13;;;5.80;;
19396;SDS011;9834;48.076;11.878;2023-02-15T08:36:36;10.37;;;6.00;;
19396;SDS011;9834;48.076;11.878;2023-02-15T08:39:04;8.90;;;6.10;;
19396;SDS011;9834;48.076;11.878;2023-02-15T08:41:32;10.43;;;6.50;;
19396;SDS011;9834;48.076;11.878;2023-02-15T08:44:01;9.57;;;5.70;;
19396;SDS011;9834;48.076;11.878;2023-02-15T08:46:30;12.77;;;7.47;;
19396;SDS011;9834;48.076;11.878;2023-02-15T08:48:58;7.20;;;5.90;;
19396;SDS011;9834;48.076;11.878;2023-02-15T08:51:26;7.93;;;6.20;;
19396;SDS011;9834;48.076;11.878;2023-02-15T08:53:57;11.60;;;6.60;;
19396;SDS011;9834;48.076;11.878;2023-02-15T08:56:26;9.33;;;6.63;;
19396;SDS011;9834;48.076;11.878;2023-02-15T08:58:55;8.70;;;5.97;;
19396;SDS011;9834;48.076;11.878;2023-02-15T09:01:23;8.30;;;5.67;;
19396;SDS011;9834;48.076;11.878;2023-02-15T09:03:55;9.63;;;6.13;;
19396;SDS011;9834;48.076;11.878;2023-02-15T09:06:24;8.33;;;6.47;;
19396;SDS011;9834;48.076;11.878;2023-02-15T09:08:53;7.23;;;5.40;;
19396;SDS011;9834;48.076;11.878;2023-02-15T09:11:22;9.70;;;5.90;;
19396;SDS011;9834;48.076;11.878;2023-02-15T09:13:52;9.90;;;5.90;;
19396;SDS011;9834;48.076;11.878;2023-02-15T09:16:21;10.20;;;6.70;;
19396;SDS011;9834;48.076;11.878;2023-02-15T09:18:50;9.43;;;6.03;;
19396;SDS011;9834;48.076;11.878;2023-02-15T09:21:18;8.13;;;5.77;;
19396;SDS011;9834;48.076;11.878;2023-02-15T09:23:48;7.03;;;5.33;;
19396;SDS011;9834;48.076;11.878;2023-02-15T09:26:17;7.70;;;5.27;;
19396;SDS011;9834;48.076;11.878;2023-02-15T09:28:47;6.63;;;5.50;;
19396;SDS011;9834;48.076;11.878;2023-02-15T09:31:18;8.67;;;5.63;;
19396;SDS011;9834;48.076;11.878;2023-02-15T09:33:47;9.57;;;6.27;;
19396;SDS011;9834;48.076;11.878;2023-02-15T09:36:15;6.23;;;5.60;;
19396;SDS011;9834;48.076;11.878;2023-02-15T09:38:44;8.17;;;5.60;;
19396;SDS011;9834;48.076;11.878;2023-02-15T09:41:16;7.17;;;5.60;;
19396;SDS011;9834;48.076;11.878;2023-02-15T09:44:06;6.47;;;5.33;;
19396;SDS011;9834;48.076;11.878;2023-02-15T09:46:50;10.13;;;5.93;;
19396;SDS011;9834;48.076;11.878;2023-02-15T09:49:32;7.93;;;5.33;;
19396;SDS011;9834;48.076;11.878;2023-02-15T09:55:09;10.37;;;5.83;;
19396;SDS011;9834;48.076;11.878;2023-02-15T09:57:47;7.33;;;5.10;;
19396;SDS011;9834;48.076;11.878;2023-02-15T10:00:24;8.77;;;4.97;;
19396;SDS011;9834;48.076;11.878;2023-02-15T10:05:56;9.33;;;5.83;;
19396;SDS011;9834;48.076;11.878;2023-02-15T10:08:48;7.33;;;5.57;;
19396;SDS011;9834;48.076;11.878;2023-02-15T10:11:36;8.43;;;4.70;;
19396;SDS011;9834;48.076;11.878;2023-02-15T10:14:29;8.93;;;5.53;;
19396;SDS011;9834;48.076;11.878;2023-02-15T10:17:16;10.63;;;5.73;;
19396;SDS011;9834;48.076;11.878;2023-02-15T10:20:02;7.23;;;4.90;;
19396;SDS011;9834;48.076;11.878;2023-02-15T10:22:43;8.63;;;5.63;;
19396;SDS011;9834;48.076;11.878;2023-02-15T10:25:26;6.80;;;5.60;;
19396;SDS011;9834;48.076;11.878;2023-02-15T10:28:02;7.80;;;5.93;;
19396;SDS011;9834;48.076;11.878;2023-02-15T10:30:35;8.70;;;5.20;;
19396;SDS011;9834;48.076;11.878;2023-02-15T10:33:11;8.80;;;5.63;;
19396;SDS011;9834;48.076;11.878;2023-02-15T10:35:48;7.87;;;4.47;;
19396;SDS011;9834;48.076;11.878;2023-02-15T10:38:24;8.87;;;6.40;;
19396;SDS011;9834;48.076;11.878;2023-02-15T10:41:02;8.47;;;5.93;;
19396;SDS011;9834;48.076;11.878;2023-02-15T10:43:43;8.90;;;5.63;;
19396;SDS011;9834;48.076;11.878;2023-02-15T10:46:22;10.17;;;6.33;;
19396;SDS011;9834;48.076;11.878;2023-02-15T10:49:10;5.70;;;5.13;;
19396;SDS011;9834;48.076;11.878;2023-02-15T10:51:53;6.50;;;5.70;;
19396;SDS011;9834;48.076;11.878;2023-02-15T10:54:32;9.50;;;5.97;;
19396;SDS011;9834;48.076;11.878;2023-02-15T10:57:08;7.13;;;5.30;;
19396;SDS011;9834;48.076;11.878;2023-02-15T10:59:48;8.37;;;5.70;;
19396;SDS011;9834;48.076;11.878;2023-02-15T11:02:46;7.60;;;5.63;;
19396;SDS011;9834;48.076;11.878;2023-02-15T11:05:28;8.43;;;6.00;;
19396;SDS011;9834;48.076;11.878;2023-02-15T11:08:03;9.03;;;6.10;;
19396;SDS011;9834;48.076;11.878;2023-02-15T11:10:35;7.97;;;6.60;;
19396;SDS011;9834;48.076;11.878;2023-02-15T11:13:07;8.43;;;6.77;;
19396;SDS011;9834;48.076;11.878;2023-02-15T11:15:37;7.50;;;5.43;;
19396;SDS011;9834;48.076;11.878;2023-02-15T11:18:09;8.07;;;6.03;;
19396;SDS011;9834;48.076;11.878;2023-02-15T11:20:45;11.07;;;6.23;;
19396;SDS011;9834;48.076;11.878;2023-02-15T11:23:19;8.63;;;6.80;;
19396;SDS011;9834;48.076;11.878;2023-02-15T11:25:52;8.97;;;6.53;;
19396;SDS011;9834;48.076;11.878;2023-02-15T11:28:24;10.43;;;6.77;;
19396;SDS011;9834;48.076;11.878;2023-02-15T11:30:57;8.03;;;7.03;;
19396;SDS011;9834;48.076;11.878;2023-02-15T11:33:30;8.93;;;5.87;;
19396;SDS011;9834;48.076;11.878;2023-02-15T11:36:05;9.83;;;6.47;;
19396;SDS011;9834;48.076;11.878;2023-02-15T11:38:35;7.00;;;5.77;;
19396;SDS011;9834;48.076;11.878;2023-02-15T11:41:09;8.17;;;6.03;;
19396;SDS011;9834;48.076;11.878;2023-02-15T11:43:39;6.27;;;5.60;;
19396;SDS011;9834;48.076;11.878;2023-02-15T11:46:11;7.63;;;6.00;;
19396;SDS011;9834;48.076;11.878;2023-02-15T11:48:40;6.77;;;5.50;;
19396;SDS011;9834;48.076;11.878;2023-02-15T11:51:11;10.23;;;5.87;;
19396;SDS011;9834;48.076;11.878;2023-02-15T11:53:41;7.07;;;5.23;;
19396;SDS011;9834;48.076;11.878;2023-02-15T11:56:12;4.87;;;4.20;;
19396;SDS011;9834;48.076;11.878;2023-02-15T11:58:42;6.13;;;5.07;;
19396;SDS011;9834;48.076;11.878;2023-02-15T12:01:13;6.50;;;5.33;;
19396;SDS011;9834;48.076;11.878;2023-02-15T12:03:44;7.90;;;5.20;;
19396;SDS011;9834;48.076;11.878;2023-02-15T12:06:18;9.70;;;5.67;;
19396;SDS011;9834;48.076;11.878;2023-02-15T12:08:51;5.23;;;4.73;;
19396;SDS011;9834;48.076;11.878;2023-02-15T12:11:25;6.50;;;5.43;;
19396;SDS011;9834;48.076;11.878;2023-02-15T12:13:58;7.53;;;4.97;;
19396;SDS011;9834;48.076;11.878;2023-02-15T12:16:27;5.43;;;4.73;;
19396;SDS011;9834;48.076;11.878;2023-02-15T12:18:56;7.63;;;5.53;;
19396;SDS011;9834;48.076;11.878;2023-02-15T12:21:27;5.17;;;4.43;;
19396;SDS011;9834;48.076;11.878;2023-02-15T12:23:57;4.93;;;4.53;;
19396;SDS011;9834;48.076;11.878;2023-02-15T12:26:27;6.17;;;4.97;;
19396;SDS011;9834;48.076;11.878;2023-02-15T12:28:58;6.33;;;5.17;;
19396;SDS011;9834;48.076;11.878;2023-02-15T12:31:30;6.83;;;4.63;;
19396;SDS011;9834;48.076;11.878;2023-02-15T12:34:03;5.50;;;4.03;;
19396;SDS011;9834;48.076;11.878;2023-02-15T12:36:42;7.23;;;4.73;;
19396;SDS011;9834;48.076;11.878;2023-02-15T12:39:16;5.50;;;4.30;;
19396;SDS011;9834;48.076;11.878;2023-02-15T12:41:56;6.37;;;4.20;;
19396;SDS011;9834;48.076;11.878;2023-02-15T12:44:27;7.40;;;5.03;;
19396;SDS011;9834;48.076;11.878;2023-02-15T12:46:56;6.80;;;4.47;;
19396;SDS011;9834;48.076;11.878;2023-02-15T12:49:25;6.37;;;4.43;;
19396;SDS011;9834;48.076;11.878;2023-02-15T12:51:55;4.50;;;4.10;;
19396;SDS011;9834;48.076;11.878;2023-02-15T12:54:32;5.37;;;4.57;;
19396;SDS011;9834;48.076;11.878;2023-02-15T12:57:17;5.60;;;5.03;;
19396;SDS011;9834;48.076;11.878;2023-02-15T12:59:51;8.40;;;4.70;;
19396;SDS011;9834;48.076;11.878;2023-02-15T13:02:27;5.40;;;4.33;;
19396;SDS011;9834;48.076;11.878;2023-02-15T13:04:57;5.33;;;4.13;;
19396;SDS011;9834;48.076;11.878;2023-02-15T13:07:34;6.63;;;4.07;;
19396;SDS011;9834;48.076;11.878;2023-02-15T13:10:03;8.50;;;4.77;;
19396;SDS011;9834;48.076;11.878;2023-02-15T13:12:31;4.53;;;3.77;;
19396;SDS011;9834;48.076;11.878;2023-02-15T13:14:59;5.70;;;4.57;;
19396;SDS011;9834;48.076;11.878;2023-02-15T13:17:28;5.50;;;4.67;;
19396;SDS011;9834;48.076;11.878;2023-02-15T13:20:00;7.17;;;4.20;;
19396;SDS011;9834;48.076;11.878;2023-02-15T13:22:35;4.57;;;4.17;;
19396;SDS011;9834;48.076;11.878;2023-02-15T13:25:10;5.55;;;4.22;;
19396;SDS011;9834;48.076;11.878;2023-02-15T13:27:44;5.18;;;4.65;;
19396;SDS011;9834;48.076;11.878;2023-02-15T13:30:21;4.82;;;4.43;;
19396;SDS011;9834;48.076;11.878;2023-02-15T13:32:52;12.27;;;4.30;;
19396;SDS011;9834;48.076;11.878;2023-02-15T13:35:22;5.90;;;4.38;;
19396;SDS011;9834;48.076;11.878;2023-02-15T13:40:48;6.68;;;4.30;;
19396;SDS011;9834;48.076;11.878;2023-02-15T13:43:30;5.15;;;3.55;;
19396;SDS011;9834;48.076;11.878;2023-02-15T13:46:14;4.32;;;3.65;;
19396;SDS011;9834;48.076;11.878;2023-02-15T13:48:54;3.92;;;3.42;;
19396;SDS011;9834;48.076;11.878;2023-02-15T13:51:34;5.43;;;4.28;;
19396;SDS011;9834;48.076;11.878;2023-02-15T13:54:23;4.40;;;3.88;;
19396;SDS011;9834;48.076;11.878;2023-02-15T13:57:21;5.43;;;4.53;;
19396;SDS011;9834;48.076;11.878;2023-02-15T14:00:04;3.55;;;3.25;;
19396;SDS011;9834;48.076;11.878;2023-02-15T14:02:53;4.90;;;4.07;;
19396;SDS011;9834;48.076;11.878;2023-02-15T14:05:49;6.68;;;4.63;;
19396;SDS011;9834;48.076;11.878;2023-02-15T14:08:38;5.43;;;4.22;;
19396;SDS011;9834;48.076;11.878;2023-02-15T14:11:17;4.15;;;3.85;;
19396;SDS011;9834;48.076;11.878;2023-02-15T14:16:54;4.60;;;4.10;;
19396;SDS011;9834;48.076;11.878;2023-02-15T14:19:31;4.43;;;4.03;;
19396;SDS011;9834;48.076;11.878;2023-02-15T14:22:06;4.80;;;4.00;;
19396;SDS011;9834;48.076;11.878;2023-02-15T14:24:46;6.65;;;4.10;;
19396;SDS011;9834;48.076;11.878;2023-02-15T14:27:26;5.30;;;4.25;;
19396;SDS011;9834;48.076;11.878;2023-02-15T14:30:12;3.90;;;3.60;;
19396;SDS011;9834;48.076;11.878;2023-02-15T14:32:45;6.70;;;5.07;;
19396;SDS011;9834;48.076;11.878;2023-02-15T14:35:18;4.18;;;3.85;;
19396;SDS011;9834;48.076;11.878;2023-02-15T14:37:49;3.97;;;3.67;;
19396;SDS011;9834;48.076;11.878;2023-02-15T14:40:25;7.05;;;4.53;;
19396;SDS011;9834;48.076;11.878;2023-02-15T14:43:22;4.78;;;4.03;;
19396;SDS011;9834;48.076;11.878;2023-02-15T14:46:00;7.97;;;4.25;;
19396;SDS011;9834;48.076;11.878;2023-02-15T14:48:31;4.72;;;3.92;;
19396;SDS011;9834;48.076;11.878;2023-02-15T14:51:04;4.97;;;3.60;;
19396;SDS011;9834;48.076;11.878;2023-02-15T14:53:35;7.38;;;4.32;;
19396;SDS011;9834;48.076;11.878;2023-02-15T14:56:14;4.00;;;3.25;;
19396;SDS011;9834;48.076;11.878;2023-02-15T14:58:59;2.97;;;2.78;;
19396;SDS011;9834;48.076;11.878;2023-02-15T15:01:39;6.53;;;4.15;;
19396;SDS011;9834;48.076;11.878;2023-02-15T15:04:08;6.20;;;4.75;;
19396;SDS011;9834;48.076;11.878;2023-02-15T15:06:40;5.63;;;3.95;;
19396;SDS011;9834;48.076;11.878;2023-02-15T15:09:10;3.40;;;3.10;;
19396;SDS011;9834;48.076;11.878;2023-02-15T15:11:42;5.03;;;4.47;;
19396;SDS011;9834;48.076;11.878;2023-02-15T15:17:11;6.00;;;4.18;;
19396;SDS011;9834;48.076;11.878;2023-02-15T15:20:02;4.43;;;4.05;;
19396;SDS011;9834;48.076;11.878;2023-02-15T15:22:38;4.45;;;4.05;;
19396;SDS011;9834;48.076;11.878;2023-02-15T15:28:08;3.78;;;3.42;;
19396;SDS011;9834;48.076;11.878;2023-02-15T15:46:04;8.48;;;3.90;;
19396;SDS011;9834;48.076;11.878;2023-02-15T15:48:40;8.98;;;4.68;;
19396;SDS011;9834;48.076;11.878;2023-02-15T15:51:10;3.55;;;3.25;;
19396;SDS011;9834;48.076;11.878;2023-02-15T15:53:44;7.03;;;4.13;;